Agua Dulce, Texas
Current Conditions -  °F | °C
As of 5:53 AM on Thursday 23 Oct 2014 (Local Time) from KALI Reporting Station
Clear Clear  
Wind Chill: 65°   Ceiling: Unl
Heat Index: 65°   Visibility: 10mi
Dew Point: 62°   Wind: 6mph
Humidity: 90%   Direction: 330°NNW
Pressure: 30.05"   Gusts: NA
Location:  27.78°N, 97.91°W
Report Text: KALI 231053Z AUTO 33005KT 10SM CLR 18/17 A3005 RMK AO2 SLP172 T01830167
Loading
Personal Weather Stations






























Interactive Weather Map
Tropical Storm Tracking
New forecast layout! Learn more

10-Day Weather Forecast

Advertisements
Track Severe Weather on mobile